createdAt,value
2023-04-26T00:00:01.279Z,3.19
2023-04-26T00:01:04.212Z,3.18
2023-04-26T00:02:05.676Z,3.26
2023-04-26T00:03:07.775Z,3.14
2023-04-26T00:04:09.797Z,3.27
2023-04-26T00:05:11.664Z,3.22
2023-04-26T00:06:14.668Z,3.10
2023-04-26T00:07:16.080Z,3.17
2023-04-26T00:08:17.504Z,3.07
2023-04-26T00:09:19.623Z,2.96
2023-04-26T00:10:21.114Z,2.87
2023-04-26T00:11:23.011Z,2.81
2023-04-26T00:12:24.497Z,2.77
2023-04-26T00:13:26.008Z,2.81
2023-04-26T00:14:27.482Z,2.90
2023-04-26T00:15:28.921Z,2.85
2023-04-26T00:16:30.487Z,2.94
2023-04-26T00:17:31.988Z,2.89
2023-04-26T00:18:33.471Z,2.84
2023-04-26T00:19:34.902Z,2.73
2023-04-26T00:20:36.326Z,2.85
2023-04-26T00:21:37.905Z,3.09
2023-04-26T00:22:40.011Z,3.01
2023-04-26T00:23:42.134Z,2.90
2023-04-26T00:24:43.661Z,2.99
2023-04-26T00:25:48.135Z,2.87
2023-04-26T00:26:49.540Z,2.92
2023-04-26T00:27:52.297Z,2.94
2023-04-26T00:28:53.935Z,2.91
2023-04-26T00:29:55.774Z,3.01
2023-04-26T00:30:57.740Z,3.02
2023-04-26T00:31:59.562Z,2.95
2023-04-26T00:33:01.095Z,2.96
2023-04-26T00:34:02.583Z,2.84
2023-04-26T00:35:04.744Z,2.82
2023-04-26T00:36:06.325Z,2.66
2023-04-26T00:37:08.067Z,2.56
2023-04-26T00:38:09.544Z,2.64
2023-04-26T00:39:11.102Z,2.59
2023-04-26T00:40:13.393Z,2.61
2023-04-26T00:41:14.873Z,2.68
2023-04-26T00:42:16.340Z,2.69
2023-04-26T00:43:17.760Z,2.70
2023-04-26T00:44:19.316Z,2.62
2023-04-26T00:45:20.875Z,2.75
2023-04-26T00:46:22.869Z,2.69
2023-04-26T00:47:25.115Z,2.69
2023-04-26T00:48:26.646Z,2.57
2023-04-26T00:49:28.410Z,2.65
2023-04-26T00:50:31.314Z,2.70
2023-04-26T00:51:32.770Z,2.48
2023-04-26T00:52:34.220Z,2.43
2023-04-26T00:53:36.226Z,2.47
2023-04-26T00:54:38.278Z,2.45
2023-04-26T00:55:40.269Z,2.41
2023-04-26T00:56:42.694Z,2.46
2023-04-26T00:57:45.791Z,2.43
2023-04-26T00:58:47.200Z,2.37
2023-04-26T00:59:48.724Z,2.37
2023-04-26T01:00:51.528Z,2.32
2023-04-26T01:01:53.312Z,2.25
2023-04-26T01:02:54.922Z,2.32
2023-04-26T01:03:57.146Z,2.29
2023-04-26T01:04:58.648Z,2.36
2023-04-26T01:06:00.175Z,2.28
2023-04-26T01:07:02.806Z,2.35
2023-04-26T01:08:04.886Z,2.40
2023-04-26T01:09:11.093Z,2.47
2023-04-26T01:10:12.566Z,2.37
2023-04-26T01:11:14.803Z,2.27
2023-04-26T01:12:17.155Z,2.35
2023-04-26T01:13:18.550Z,2.30
2023-04-26T01:14:21.935Z,2.42
2023-04-26T01:15:24.592Z,2.36
2023-04-26T01:16:28.165Z,2.33
2023-04-26T01:17:29.927Z,2.32
2023-04-26T01:18:31.368Z,2.37
2023-04-26T01:19:32.843Z,2.50
2023-04-26T01:20:34.793Z,2.46
2023-04-26T01:21:36.462Z,2.39
2023-04-26T01:22:37.876Z,2.31
2023-04-26T01:23:39.270Z,2.29
2023-04-26T01:24:43.543Z,2.15
2023-04-26T01:25:45.011Z,2.31
2023-04-26T01:26:46.766Z,2.36
2023-04-26T01:27:48.181Z,2.24
2023-04-26T01:28:49.779Z,2.27
2023-04-26T01:29:51.333Z,2.28
2023-04-26T01:30:53.046Z,2.32
2023-04-26T01:31:54.509Z,2.34
2023-04-26T01:32:56.089Z,2.36
2023-04-26T01:33:57.505Z,2.29
2023-04-26T01:35:00.598Z,2.33
2023-04-26T01:36:02.273Z,2.25
2023-04-26T01:37:03.701Z,2.14
2023-04-26T01:38:05.118Z,2.34
2023-04-26T01:39:08.400Z,2.21
2023-04-26T01:40:10.470Z,2.11
2023-04-26T01:41:11.803Z,2.13
2023-04-26T01:42:13.272Z,2.17
2023-04-26T01:43:15.600Z,2.10
2023-04-26T01:44:17.243Z,2.36
2023-04-26T01:45:18.633Z,2.25
2023-04-26T01:46:20.110Z,2.24
2023-04-26T01:47:21.703Z,2.22
2023-04-26T01:48:23.157Z,2.27
2023-04-26T01:49:24.649Z,2.44
2023-04-26T01:50:26.167Z,2.41
2023-04-26T01:51:27.628Z,2.35
2023-04-26T01:52:29.037Z,2.38
2023-04-26T01:53:30.525Z,2.45
2023-04-26T01:54:31.978Z,2.44
2023-04-26T01:55:36.486Z,2.38
2023-04-26T01:56:37.937Z,2.30
2023-04-26T01:57:39.414Z,2.23
2023-04-26T01:58:40.847Z,2.19
2023-04-26T01:59:42.264Z,2.16
2023-04-26T02:00:43.662Z,2.12
2023-04-26T02:01:45.282Z,2.16
2023-04-26T02:02:46.799Z,2.08
2023-04-26T02:03:49.345Z,2.08
2023-04-26T02:04:51.088Z,2.14
2023-04-26T02:05:52.563Z,2.20
2023-04-26T02:06:54.128Z,2.24
2023-04-26T02:07:55.538Z,2.17
2023-04-26T02:08:57.006Z,2.05
2023-04-26T02:09:58.417Z,2.00
2023-04-26T02:11:00.045Z,2.01
2023-04-26T02:12:01.490Z,2.03
2023-04-26T02:13:02.890Z,1.95
2023-04-26T02:14:04.300Z,1.98
2023-04-26T02:15:06.868Z,2.03
2023-04-26T02:16:08.307Z,1.92
2023-04-26T02:17:11.140Z,1.99
2023-04-26T02:18:12.968Z,1.98
2023-04-26T02:19:15.188Z,1.93
2023-04-26T02:20:16.707Z,2.01
2023-04-26T02:21:18.573Z,1.95
2023-04-26T02:22:21.166Z,1.85
2023-04-26T02:23:24.227Z,1.84
2023-04-26T02:24:25.870Z,1.88
2023-04-26T02:25:27.389Z,1.84
2023-04-26T02:26:28.958Z,1.83
2023-04-26T02:27:30.705Z,1.83
2023-04-26T02:28:32.157Z,1.84
2023-04-26T02:29:42.973Z,1.75
2023-04-26T02:30:45.994Z,1.78
2023-04-26T02:31:48.714Z,1.85
2023-04-26T02:32:50.231Z,1.77
2023-04-26T02:33:51.667Z,1.78
2023-04-26T02:34:53.088Z,1.82
2023-04-26T02:35:54.524Z,1.82
2023-04-26T02:36:56.125Z,1.81
2023-04-26T02:37:57.546Z,1.90
2023-04-26T02:38:59.885Z,1.89
2023-04-26T02:40:01.354Z,1.81
2023-04-26T02:41:03.835Z,1.82
2023-04-26T02:42:12.195Z,1.97
2023-04-26T02:43:13.612Z,1.81
2023-04-26T02:44:15.152Z,2.02
2023-04-26T02:45:16.579Z,2.15
2023-04-26T02:46:18.416Z,2.06
2023-04-26T02:47:19.903Z,1.93
2023-04-26T02:48:21.335Z,1.84
2023-04-26T02:49:22.822Z,1.76
2023-04-26T02:50:24.190Z,1.65
2023-04-26T02:51:26.992Z,1.82
2023-04-26T02:52:28.417Z,1.90
2023-04-26T02:53:29.866Z,1.82
2023-04-26T02:54:31.274Z,1.75
2023-04-26T02:55:33.040Z,1.59
2023-04-26T02:56:34.434Z,1.77
2023-04-26T02:57:35.966Z,1.72
2023-04-26T02:58:37.379Z,1.64
2023-04-26T02:59:38.852Z,1.68
2023-04-26T03:00:48.633Z,1.74
2023-04-26T03:01:50.304Z,1.76
2023-04-26T03:02:52.219Z,1.63
2023-04-26T03:03:54.626Z,1.62
2023-04-26T03:04:56.504Z,1.64
2023-04-26T03:06:00.853Z,1.66
2023-04-26T03:07:03.921Z,1.70
2023-04-26T03:08:06.101Z,1.72
2023-04-26T03:09:07.396Z,1.71
2023-04-26T03:10:09.730Z,1.67
2023-04-26T03:11:11.784Z,1.63
2023-04-26T03:12:13.249Z,1.61
2023-04-26T03:13:15.150Z,1.62
2023-04-26T03:14:17.326Z,1.54
2023-04-26T03:15:18.652Z,1.51
2023-04-26T03:16:23.301Z,1.51
2023-04-26T03:17:24.888Z,1.56
2023-04-26T03:18:26.332Z,1.58
2023-04-26T03:19:30.579Z,1.46
2023-04-26T03:20:32.029Z,1.46
2023-04-26T03:21:33.578Z,1.55
2023-04-26T03:22:35.011Z,1.56
2023-04-26T03:23:36.430Z,1.49
2023-04-26T03:24:38.048Z,1.41
2023-04-26T03:25:39.780Z,1.37
2023-04-26T03:26:41.558Z,1.36
2023-04-26T03:27:42.992Z,1.37
2023-04-26T03:28:44.389Z,1.33
2023-04-26T03:29:46.047Z,1.39
2023-04-26T03:30:49.907Z,1.33
2023-04-26T03:31:51.392Z,1.22
2023-04-26T03:32:53.243Z,1.11
2023-04-26T03:33:54.785Z,1.01
2023-04-26T03:34:56.342Z,1.15
2023-04-26T03:35:57.791Z,1.16
2023-04-26T03:36:59.251Z,1.15
2023-04-26T03:38:00.807Z,1.09
2023-04-26T03:39:02.368Z,1.18
2023-04-26T03:40:04.353Z,1.05
2023-04-26T03:41:05.867Z,1.16
2023-04-26T03:42:07.256Z,1.05
2023-04-26T03:43:08.743Z,1.05
2023-04-26T03:44:10.255Z,1.06
2023-04-26T03:45:11.733Z,1.11
2023-04-26T03:46:13.180Z,1.10
2023-04-26T03:47:15.798Z,1.08
2023-04-26T03:48:17.346Z,1.08
2023-04-26T03:49:18.957Z,0.94
2023-04-26T03:50:20.923Z,1.00
2023-04-26T03:51:22.303Z,1.11
2023-04-26T03:52:23.876Z,1.14
2023-04-26T03:53:25.428Z,1.15
2023-04-26T03:54:26.901Z,1.09
2023-04-26T03:55:28.306Z,1.11
2023-04-26T03:56:29.762Z,1.03
2023-04-26T03:57:31.163Z,1.11
2023-04-26T03:58:33.240Z,1.16
2023-04-26T03:59:34.569Z,1.20
2023-04-26T04:00:39.986Z,1.06
2023-04-26T04:01:41.392Z,1.05
2023-04-26T04:02:43.027Z,1.07
2023-04-26T04:03:44.933Z,1.04
2023-04-26T04:04:46.765Z,1.06
2023-04-26T04:05:48.349Z,1.16
2023-04-26T04:06:49.762Z,1.07
2023-04-26T04:07:52.075Z,1.06
2023-04-26T04:08:53.819Z,1.17
2023-04-26T04:09:55.628Z,1.30
2023-04-26T04:10:57.046Z,1.36
2023-04-26T04:11:58.443Z,1.40
2023-04-26T04:12:59.868Z,1.40
2023-04-26T04:14:02.585Z,1.37
2023-04-26T04:15:04.328Z,1.35
2023-04-26T04:16:06.853Z,1.46
2023-04-26T04:17:08.506Z,1.51
2023-04-26T04:18:09.977Z,1.48
2023-04-26T04:19:11.576Z,1.43
2023-04-26T04:20:13.856Z,1.57
2023-04-26T04:21:15.287Z,1.63
2023-04-26T04:22:16.753Z,1.62
2023-04-26T04:23:18.203Z,1.59
2023-04-26T04:24:20.146Z,1.48
2023-04-26T04:25:22.577Z,1.44
2023-04-26T04:26:23.956Z,1.49
2023-04-26T04:27:28.553Z,1.48
2023-04-26T04:28:30.036Z,1.59
2023-04-26T04:29:32.732Z,1.53
2023-04-26T04:30:34.357Z,1.53
2023-04-26T04:31:36.734Z,1.59
2023-04-26T04:32:39.463Z,1.60
2023-04-26T04:33:41.451Z,1.59
2023-04-26T04:34:44.281Z,1.71
2023-04-26T04:35:45.782Z,1.77
2023-04-26T04:36:47.490Z,1.84
2023-04-26T04:37:50.094Z,1.74
2023-04-26T04:38:53.422Z,1.77
2023-04-26T04:39:55.800Z,1.78
2023-04-26T04:40:58.072Z,1.88
2023-04-26T04:42:00.401Z,1.95
2023-04-26T04:43:02.094Z,1.95
2023-04-26T04:44:04.065Z,2.01
2023-04-26T04:45:06.273Z,2.04
2023-04-26T04:46:08.416Z,2.00
2023-04-26T04:47:10.558Z,2.05
2023-04-26T04:48:12.096Z,2.04
2023-04-26T04:49:13.543Z,2.12
2023-04-26T04:50:15.052Z,2.17
2023-04-26T04:51:16.505Z,2.21
2023-04-26T04:52:19.280Z,2.21
2023-04-26T04:53:20.770Z,2.24
2023-04-26T04:54:22.229Z,2.30
2023-04-26T04:55:23.804Z,2.33
2023-04-26T04:56:25.986Z,2.32
2023-04-26T04:57:27.493Z,2.35
2023-04-26T04:58:28.915Z,2.37
2023-04-26T04:59:30.673Z,2.44
2023-04-26T05:00:32.243Z,2.42
2023-04-26T05:01:34.087Z,2.53
2023-04-26T05:02:36.923Z,2.61
2023-04-26T05:03:38.701Z,2.67
2023-04-26T05:04:40.432Z,2.69
2023-04-26T05:05:42.051Z,2.83
2023-04-26T05:06:43.554Z,2.90
2023-04-26T05:07:45.109Z,3.02
2023-04-26T05:08:47.037Z,3.12
2023-04-26T05:09:48.441Z,3.14
2023-04-26T05:10:49.905Z,3.28
2023-04-26T05:11:51.919Z,3.49
2023-04-26T05:12:53.499Z,3.88
2023-04-26T05:13:55.055Z,4.13
2023-04-26T05:14:56.595Z,4.37
2023-04-26T05:15:58.130Z,4.61
2023-04-26T05:16:59.568Z,4.43
2023-04-26T05:18:01.379Z,4.78
2023-04-26T05:19:03.228Z,4.68
2023-04-26T05:20:07.299Z,4.89
2023-04-26T05:21:09.041Z,5.10
2023-04-26T05:22:10.493Z,5.22
2023-04-26T05:23:11.922Z,5.06
2023-04-26T05:24:13.374Z,5.14
2023-04-26T05:25:14.860Z,5.18
2023-04-26T05:26:17.183Z,5.34
2023-04-26T05:27:18.583Z,5.51
2023-04-26T05:28:20.000Z,5.46
2023-04-26T05:29:21.853Z,5.58
2023-04-26T05:30:23.399Z,5.56
2023-04-26T05:31:24.857Z,5.35
2023-04-26T05:32:26.322Z,5.69
2023-04-26T05:33:28.711Z,5.69
2023-04-26T05:34:30.158Z,5.80
2023-04-26T05:35:31.572Z,5.66
2023-04-26T05:36:33.311Z,5.62
2023-04-26T05:37:35.652Z,5.87
2023-04-26T05:38:38.043Z,5.88
2023-04-26T05:39:39.497Z,6.27
2023-04-26T05:40:41.209Z,6.29
2023-04-26T05:41:42.616Z,6.00
2023-04-26T05:42:44.012Z,5.82
2023-04-26T05:43:46.987Z,5.79
2023-04-26T05:44:48.426Z,5.78
2023-04-26T05:45:54.283Z,5.98
2023-04-26T05:46:55.980Z,6.14
2023-04-26T05:47:57.472Z,6.07
2023-04-26T05:48:58.950Z,6.37
2023-04-26T05:50:00.430Z,6.01
2023-04-26T05:51:02.540Z,6.32
2023-04-26T05:52:04.140Z,6.49
2023-04-26T05:53:05.665Z,6.73
2023-04-26T05:54:07.404Z,6.15
2023-04-26T05:55:09.329Z,6.35
2023-04-26T05:56:10.745Z,5.92
2023-04-26T05:57:12.613Z,6.30
2023-04-26T05:58:14.106Z,6.54
2023-04-26T05:59:15.566Z,6.43
2023-04-26T06:00:19.380Z,6.32
2023-04-26T06:01:20.961Z,6.69
2023-04-26T06:02:22.557Z,6.40
2023-04-26T06:03:24.509Z,6.64
2023-04-26T06:04:26.293Z,6.96
2023-04-26T06:05:28.216Z,7.22
2023-04-26T06:06:29.638Z,6.99
2023-04-26T06:07:31.499Z,7.16
2023-04-26T06:08:33.468Z,6.69
2023-04-26T06:09:35.005Z,6.80
2023-04-26T06:10:37.633Z,6.24
2023-04-26T06:11:39.078Z,6.26
2023-04-26T06:12:40.836Z,6.38
2023-04-26T06:13:42.321Z,6.50
2023-04-26T06:14:43.878Z,6.48
2023-04-26T06:15:45.317Z,6.51
2023-04-26T06:16:46.911Z,6.46
2023-04-26T06:17:48.447Z,6.62
2023-04-26T06:18:49.956Z,6.52
2023-04-26T06:19:51.418Z,6.85
2023-04-26T06:20:52.871Z,6.98
2023-04-26T06:21:55.398Z,7.05
2023-04-26T06:22:57.250Z,6.75
2023-04-26T06:23:58.647Z,6.78
2023-04-26T06:25:00.312Z,7.22
2023-04-26T06:26:01.947Z,7.19
2023-04-26T06:27:03.489Z,6.76
2023-04-26T06:28:04.987Z,6.82
2023-04-26T06:29:06.561Z,7.24
2023-04-26T06:30:08.718Z,7.05
2023-04-26T06:31:10.202Z,7.29
2023-04-26T06:32:11.633Z,7.49
2023-04-26T06:33:13.061Z,7.40
2023-04-26T06:34:14.603Z,7.49
2023-04-26T06:35:16.423Z,7.70
2023-04-26T06:36:17.854Z,7.65
2023-04-26T06:37:19.265Z,7.77
2023-04-26T06:38:20.967Z,7.46
2023-04-26T06:39:22.413Z,7.47
2023-04-26T06:40:23.926Z,7.20
2023-04-26T06:41:25.510Z,7.18
2023-04-26T06:42:27.016Z,7.38
2023-04-26T06:43:28.580Z,7.92
2023-04-26T06:44:30.788Z,7.89
2023-04-26T06:45:32.360Z,7.57
2023-04-26T06:46:33.849Z,7.69
2023-04-26T06:47:35.465Z,7.77
2023-04-26T06:48:36.919Z,7.70
2023-04-26T06:49:38.350Z,7.93
2023-04-26T06:50:40.124Z,7.94
2023-04-26T06:51:41.606Z,7.93
2023-04-26T06:52:43.039Z,8.40
2023-04-26T06:53:44.426Z,7.91
2023-04-26T06:54:56.425Z,7.90
2023-04-26T06:55:58.742Z,8.26
2023-04-26T06:57:01.470Z,8.60
2023-04-26T06:58:03.141Z,8.30
2023-04-26T06:59:06.980Z,7.93
2023-04-26T07:00:09.651Z,7.42
2023-04-26T07:01:11.278Z,7.65
2023-04-26T07:02:14.518Z,8.13
2023-04-26T07:03:17.327Z,7.97
2023-04-26T07:04:20.788Z,7.87
2023-04-26T07:05:22.657Z,7.59
2023-04-26T07:06:25.007Z,7.38
2023-04-26T07:07:27.356Z,6.94
2023-04-26T07:08:28.862Z,6.82
2023-04-26T07:09:30.288Z,6.82
2023-04-26T07:10:32.326Z,6.53
2023-04-26T07:11:35.018Z,6.71
2023-04-26T07:12:36.500Z,6.90
2023-04-26T07:13:39.443Z,7.26
2023-04-26T07:14:41.405Z,7.27
2023-04-26T07:15:42.915Z,7.06
2023-04-26T07:16:45.288Z,7.01
2023-04-26T07:17:47.130Z,6.90
2023-04-26T07:18:48.792Z,6.62
2023-04-26T07:19:50.199Z,6.55
2023-04-26T07:20:51.645Z,6.68
2023-04-26T07:21:53.059Z,6.90
2023-04-26T07:22:54.537Z,7.06
2023-04-26T07:23:56.509Z,7.51
2023-04-26T07:24:57.915Z,7.44
2023-04-26T07:26:01.200Z,7.66
2023-04-26T07:27:03.428Z,8.05
2023-04-26T07:28:04.961Z,7.81
2023-04-26T07:29:06.832Z,7.51
2023-04-26T07:30:09.601Z,7.46
2023-04-26T07:31:11.166Z,7.94
2023-04-26T07:32:13.120Z,7.89
2023-04-26T07:33:14.628Z,7.69
2023-04-26T07:34:16.148Z,7.60
2023-04-26T07:35:17.687Z,7.24
2023-04-26T07:36:19.162Z,7.41
2023-04-26T07:37:20.798Z,7.55
2023-04-26T07:38:23.052Z,7.62
2023-04-26T07:39:24.501Z,7.64
2023-04-26T07:40:26.258Z,7.35
2023-04-26T07:41:27.708Z,7.91
2023-04-26T07:42:29.145Z,7.82
2023-04-26T07:43:31.324Z,7.83
2023-04-26T07:44:32.743Z,7.79
2023-04-26T07:45:34.194Z,7.89
2023-04-26T07:46:35.756Z,8.09
2023-04-26T07:47:37.360Z,8.00
2023-04-26T07:48:38.784Z,8.14
2023-04-26T07:49:40.243Z,7.97
2023-04-26T07:50:41.779Z,7.89
2023-04-26T07:51:43.972Z,7.87
2023-04-26T07:52:45.452Z,7.97
2023-04-26T07:53:46.881Z,7.67
2023-04-26T07:54:48.414Z,7.64
2023-04-26T07:55:51.524Z,7.29
2023-04-26T07:56:53.188Z,7.32
2023-04-26T07:57:54.625Z,7.70
2023-04-26T07:58:57.239Z,7.82
2023-04-26T07:59:58.921Z,7.99
2023-04-26T08:01:00.841Z,8.10
2023-04-26T08:02:02.291Z,8.31
2023-04-26T08:03:04.200Z,8.28
2023-04-26T08:04:05.906Z,8.32
2023-04-26T08:05:08.192Z,8.33
2023-04-26T08:06:09.984Z,8.39
2023-04-26T08:07:11.457Z,8.45
2023-04-26T08:08:13.044Z,8.87
2023-04-26T08:09:14.506Z,8.67
2023-04-26T08:10:16.540Z,8.86
2023-04-26T08:11:18.279Z,8.42
2023-04-26T08:12:19.785Z,8.53
2023-04-26T08:13:21.925Z,8.98
2023-04-26T08:14:23.471Z,9.18
2023-04-26T08:15:24.925Z,9.31
2023-04-26T08:16:26.383Z,9.34
2023-04-26T08:17:28.091Z,9.05
2023-04-26T08:18:29.521Z,9.05
2023-04-26T08:19:33.323Z,8.71
2023-04-26T08:20:34.796Z,8.89
2023-04-26T08:21:36.224Z,8.53
2023-04-26T08:22:37.703Z,8.81
2023-04-26T08:23:39.241Z,8.82
2023-04-26T08:24:40.650Z,8.85
2023-04-26T08:25:42.157Z,8.69
2023-04-26T08:26:43.588Z,8.95
2023-04-26T08:27:45.052Z,8.75
2023-04-26T08:28:46.582Z,8.73
2023-04-26T08:29:48.292Z,8.59
2023-04-26T08:30:49.842Z,8.62
2023-04-26T08:31:51.349Z,8.42
2023-04-26T08:32:52.920Z,8.49
2023-04-26T08:33:54.597Z,8.27
2023-04-26T08:34:56.379Z,8.48
2023-04-26T08:35:59.885Z,8.16
2023-04-26T08:37:01.346Z,8.35
2023-04-26T08:38:03.148Z,8.24
2023-04-26T08:39:04.963Z,8.31
2023-04-26T08:40:10.435Z,8.34
2023-04-26T08:41:16.753Z,7.96
2023-04-26T08:42:18.150Z,8.23
2023-04-26T08:43:19.566Z,8.22
2023-04-26T08:44:25.600Z,8.64
2023-04-26T08:45:27.106Z,8.16
2023-04-26T08:46:33.001Z,8.29
2023-04-26T08:47:47.616Z,8.68
2023-04-26T08:49:13.455Z,8.93
2023-04-26T08:50:16.810Z,9.14
2023-04-26T08:51:19.507Z,8.97
2023-04-26T08:52:24.128Z,9.05
2023-04-26T08:53:26.569Z,9.41
2023-04-26T08:54:28.439Z,9.48
2023-04-26T08:55:30.320Z,9.20
2023-04-26T08:56:32.778Z,9.03
2023-04-26T08:57:34.390Z,8.46
2023-04-26T08:58:37.598Z,8.06
2023-04-26T08:59:39.660Z,8.28
2023-04-26T09:00:42.837Z,8.40
2023-04-26T09:01:44.811Z,8.54
2023-04-26T09:02:52.679Z,8.46
2023-04-26T09:03:56.932Z,8.64
2023-04-26T09:04:58.792Z,8.90
2023-04-26T09:06:03.844Z,8.91
2023-04-26T09:07:07.357Z,9.22
2023-04-26T09:08:09.453Z,9.08
2023-04-26T09:09:13.613Z,9.27
2023-04-26T09:10:22.488Z,9.60
2023-04-26T09:11:24.045Z,9.22
2023-04-26T09:12:26.222Z,9.39
2023-04-26T09:13:29.749Z,9.30
2023-04-26T09:14:31.349Z,9.20
2023-04-26T09:15:32.862Z,9.31
2023-04-26T09:16:38.160Z,9.83
2023-04-26T09:17:41.801Z,10.05
2023-04-26T09:18:52.592Z,10.15
2023-04-26T09:19:55.299Z,10.65
2023-04-26T09:21:03.751Z,10.66
2023-04-26T09:22:06.543Z,10.60
2023-04-26T09:23:09.754Z,10.69
2023-04-26T09:24:11.821Z,10.77
2023-04-26T09:25:14.006Z,11.04
2023-04-26T09:26:17.196Z,10.81
2023-04-26T09:27:19.509Z,11.07
2023-04-26T09:28:22.670Z,10.90
2023-04-26T09:29:24.220Z,11.25
2023-04-26T09:30:26.785Z,11.23
2023-04-26T09:31:40.641Z,11.10
2023-04-26T09:32:48.296Z,11.11
2023-04-26T09:34:00.033Z,10.96
2023-04-26T09:35:01.536Z,10.98
2023-04-26T09:36:13.333Z,10.46
2023-04-26T09:37:14.813Z,10.57
2023-04-26T09:38:18.532Z,11.04
2023-04-26T09:39:37.936Z,11.25
2023-04-26T09:40:44.127Z,10.89
2023-04-26T09:41:45.651Z,10.93
2023-04-26T09:42:47.266Z,10.63
2023-04-26T09:43:52.499Z,10.71
2023-04-26T09:44:54.852Z,10.47
2023-04-26T09:45:58.263Z,10.56
2023-04-26T09:47:04.377Z,10.18
2023-04-26T09:48:23.045Z,10.01
2023-04-26T09:49:26.767Z,10.35
2023-04-26T09:50:30.088Z,10.12
2023-04-26T09:51:32.671Z,10.23
2023-04-26T09:52:42.980Z,10.14
2023-04-26T09:53:49.911Z,10.02
2023-04-26T09:54:53.469Z,9.63
2023-04-26T09:55:56.513Z,9.49
2023-04-26T09:57:03.959Z,9.28
2023-04-26T09:58:10.247Z,9.36
2023-04-26T09:59:11.938Z,8.92
2023-04-26T10:00:14.438Z,8.99
2023-04-26T10:01:18.037Z,9.10
2023-04-26T10:02:24.571Z,9.54
2023-04-26T10:03:27.264Z,9.93
2023-04-26T10:04:29.014Z,9.86
2023-04-26T10:05:33.965Z,9.89
2023-04-26T10:06:35.998Z,9.45
2023-04-26T10:07:37.571Z,9.51
2023-04-26T10:08:39.370Z,9.49
2023-04-26T10:09:44.277Z,9.31
2023-04-26T10:10:46.779Z,9.27
2023-04-26T10:11:48.617Z,9.28
2023-04-26T10:12:50.016Z,9.14
2023-04-26T10:13:51.980Z,9.63
2023-04-26T10:14:53.555Z,9.66
2023-04-26T10:15:56.564Z,9.98
2023-04-26T10:16:58.500Z,9.99
2023-04-26T10:17:59.936Z,10.13
2023-04-26T10:19:01.615Z,10.23
2023-04-26T10:20:06.451Z,9.85
2023-04-26T10:21:16.836Z,9.72
2023-04-26T10:22:23.616Z,9.72
2023-04-26T10:23:25.828Z,9.51
2023-04-26T10:24:27.323Z,9.35
2023-04-26T10:25:38.799Z,9.44
2023-04-26T10:26:54.489Z,9.58
2023-04-26T10:27:56.354Z,9.61
2023-04-26T10:29:02.186Z,9.37
2023-04-26T10:30:09.628Z,9.70
2023-04-26T10:31:11.389Z,9.56
2023-04-26T10:32:17.200Z,9.54
2023-04-26T10:33:19.172Z,10.01
2023-04-26T10:34:21.621Z,9.73
2023-04-26T10:35:23.891Z,9.79
2023-04-26T10:36:25.288Z,10.02
2023-04-26T10:37:26.784Z,9.89
2023-04-26T10:38:28.300Z,9.66
2023-04-26T10:39:30.468Z,9.74
2023-04-26T10:40:38.766Z,9.46
2023-04-26T10:41:41.317Z,9.66
2023-04-26T10:42:42.731Z,9.79
2023-04-26T10:43:44.198Z,10.27
2023-04-26T10:44:45.871Z,10.51
2023-04-26T10:45:48.622Z,10.48
2023-04-26T10:46:51.746Z,10.44
2023-04-26T10:48:19.708Z,10.45
2023-04-26T10:49:25.723Z,10.41
2023-04-26T10:50:27.990Z,10.70
2023-04-26T10:51:29.522Z,10.75
2023-04-26T10:52:31.124Z,10.86
2023-04-26T10:53:54.476Z,11.04
2023-04-26T10:54:58.397Z,11.01
2023-04-26T10:55:59.921Z,10.53
2023-04-26T10:57:01.404Z,10.41
2023-04-26T10:58:22.788Z,10.60
2023-04-26T10:59:39.922Z,10.06
2023-04-26T11:01:04.544Z,9.86
2023-04-26T11:02:10.936Z,10.31
2023-04-26T11:03:13.040Z,10.44
2023-04-26T11:04:14.785Z,10.45
2023-04-26T11:05:54.678Z,10.51
2023-04-26T11:06:57.913Z,10.48
2023-04-26T11:08:06.652Z,10.52
2023-04-26T11:09:34.708Z,10.85
2023-04-26T11:10:39.195Z,9.67
2023-04-26T11:11:53.407Z,9.27
2023-04-26T11:13:03.315Z,9.15
2023-04-26T11:14:05.624Z,9.16
2023-04-26T11:15:07.515Z,8.96
2023-04-26T11:16:13.355Z,8.74
2023-04-26T11:17:14.964Z,8.88
2023-04-26T11:18:19.748Z,8.80
2023-04-26T11:19:21.379Z,8.80
2023-04-26T11:20:23.210Z,8.91
2023-04-26T11:21:26.833Z,9.08
2023-04-26T11:22:29.833Z,8.99
2023-04-26T11:23:31.896Z,8.81
2023-04-26T11:24:38.769Z,8.81
2023-04-26T11:25:40.388Z,8.66
2023-04-26T11:26:41.933Z,8.79
2023-04-26T11:27:43.623Z,8.72
2023-04-26T11:28:46.379Z,8.94
2023-04-26T11:29:47.868Z,9.14
2023-04-26T11:30:50.478Z,9.30
2023-04-26T11:31:56.399Z,9.46
2023-04-26T11:32:59.663Z,9.42
2023-04-26T11:34:04.714Z,9.65
2023-04-26T11:35:06.590Z,9.41
2023-04-26T11:36:11.072Z,9.48
2023-04-26T11:37:12.504Z,9.60
2023-04-26T11:38:15.027Z,9.63
2023-04-26T11:39:16.472Z,9.95
2023-04-26T11:40:18.760Z,10.04
2023-04-26T11:41:23.147Z,10.35
2023-04-26T11:42:26.146Z,10.38
2023-04-26T11:43:45.649Z,10.12
2023-04-26T11:44:47.763Z,10.53
2023-04-26T11:45:49.430Z,10.33
2023-04-26T11:46:51.311Z,10.38
2023-04-26T11:47:53.088Z,10.09
2023-04-26T11:48:55.056Z,10.14
2023-04-26T11:49:56.847Z,9.93
2023-04-26T11:50:59.688Z,9.83
2023-04-26T11:52:01.563Z,9.64
2023-04-26T11:53:05.463Z,9.70
2023-04-26T11:54:06.926Z,9.59
2023-04-26T11:55:10.289Z,9.42
2023-04-26T11:56:19.654Z,9.04
2023-04-26T11:57:21.075Z,8.74
2023-04-26T11:58:22.570Z,8.74
2023-04-26T11:59:29.072Z,8.82
2023-04-26T12:00:30.584Z,8.76
2023-04-26T12:01:32.588Z,8.61
2023-04-26T12:02:35.441Z,8.67
2023-04-26T12:03:37.994Z,8.75
2023-04-26T12:04:41.112Z,8.79
2023-04-26T12:05:42.955Z,8.89
2023-04-26T12:06:46.670Z,8.73
2023-04-26T12:07:58.946Z,8.97
2023-04-26T12:09:05.327Z,9.16
2023-04-26T12:10:20.507Z,9.31
2023-04-26T12:11:22.047Z,9.58
2023-04-26T12:12:24.235Z,9.57
2023-04-26T12:13:25.937Z,9.66
2023-04-26T12:14:38.641Z,9.94
2023-04-26T12:15:40.069Z,10.32
2023-04-26T12:16:42.766Z,10.03
2023-04-26T12:18:00.084Z,10.43
2023-04-26T12:19:06.007Z,10.53
2023-04-26T12:20:11.876Z,10.48
2023-04-26T12:21:13.277Z,10.56
2023-04-26T12:22:21.804Z,10.38
2023-04-26T12:23:23.253Z,10.62
2023-04-26T12:24:29.583Z,10.78
2023-04-26T12:25:33.122Z,11.33
2023-04-26T12:26:45.080Z,11.20
2023-04-26T12:27:46.679Z,11.01
2023-04-26T12:28:48.159Z,10.41
2023-04-26T12:29:49.571Z,10.35
2023-04-26T12:30:51.564Z,10.04
2023-04-26T12:31:52.981Z,9.99
2023-04-26T12:33:00.140Z,9.73
2023-04-26T12:34:08.178Z,9.68
2023-04-26T12:35:09.710Z,9.75
2023-04-26T12:36:12.555Z,9.46
2023-04-26T12:37:14.015Z,9.57
2023-04-26T12:38:15.912Z,9.44
2023-04-26T12:39:17.332Z,9.36
2023-04-26T12:40:20.282Z,9.25
2023-04-26T12:41:21.728Z,9.34
2023-04-26T12:42:23.205Z,9.05
2023-04-26T12:43:26.208Z,9.07
2023-04-26T12:44:27.750Z,9.02
2023-04-26T12:45:29.197Z,9.05
2023-04-26T12:46:31.134Z,9.07
2023-04-26T12:47:32.707Z,9.34
2023-04-26T12:48:34.245Z,9.34
2023-04-26T12:49:35.757Z,9.65
2023-04-26T12:50:37.184Z,9.98
2023-04-26T12:51:38.659Z,10.13
2023-04-26T12:52:41.296Z,10.25
2023-04-26T12:53:42.707Z,10.43
2023-04-26T12:54:44.817Z,11.05
2023-04-26T12:55:46.632Z,10.82
2023-04-26T12:56:48.507Z,11.59
2023-04-26T12:57:49.954Z,11.67
2023-04-26T12:58:51.494Z,10.96
2023-04-26T12:59:52.924Z,11.64
2023-04-26T13:00:54.377Z,11.31
2023-04-26T13:01:55.992Z,11.84
2023-04-26T13:02:57.734Z,12.31
2023-04-26T13:04:00.628Z,11.98
2023-04-26T13:05:04.770Z,11.52
2023-04-26T13:06:07.054Z,11.43
2023-04-26T13:07:08.820Z,11.37
2023-04-26T13:08:10.414Z,11.18
2023-04-26T13:09:13.817Z,10.81
2023-04-26T13:10:15.492Z,11.46
2023-04-26T13:11:18.011Z,11.66
2023-04-26T13:12:19.706Z,11.42
2023-04-26T13:13:26.330Z,11.04
2023-04-26T13:14:34.015Z,11.19
2023-04-26T13:15:36.464Z,11.60
2023-04-26T13:16:42.332Z,11.44
2023-04-26T13:17:44.394Z,11.48
2023-04-26T13:18:46.386Z,11.66
2023-04-26T13:19:47.743Z,12.59
2023-04-26T13:20:49.205Z,12.63
2023-04-26T13:21:52.387Z,11.82
2023-04-26T13:22:53.798Z,12.10
2023-04-26T13:23:55.200Z,12.98
2023-04-26T13:24:56.633Z,13.38
2023-04-26T13:25:58.070Z,13.38
2023-04-26T13:26:59.619Z,13.60
2023-04-26T13:28:02.817Z,13.88
2023-04-26T13:29:04.839Z,13.41
2023-04-26T13:30:07.213Z,13.39
2023-04-26T13:31:08.873Z,12.52
2023-04-26T13:32:10.377Z,12.36
2023-04-26T13:33:11.943Z,12.06
2023-04-26T13:34:13.436Z,11.60
2023-04-26T13:35:15.142Z,11.75
2023-04-26T13:36:17.084Z,11.95
2023-04-26T13:37:21.121Z,12.07
2023-04-26T13:38:22.942Z,11.58
2023-04-26T13:39:24.934Z,12.57
2023-04-26T13:40:26.765Z,12.39
2023-04-26T13:41:33.215Z,12.49
2023-04-26T13:42:34.638Z,11.59
2023-04-26T13:43:36.183Z,11.80
2023-04-26T13:44:37.646Z,11.09
2023-04-26T13:45:39.655Z,11.13
2023-04-26T13:46:42.282Z,11.24
2023-04-26T13:47:43.765Z,10.90
2023-04-26T13:48:45.188Z,10.77
2023-04-26T13:49:46.624Z,10.76